Tema, Ghana
Current Conditions -  °F | °C
As of 1:00 AM on Saturday 29 Nov 2014 (Local Time) from DGAA Reporting Station
Clear Clear  
Wind Chill: 79°   Ceiling: Unl
Heat Index: 82°   Visibility: 6mi
Dew Point: 75°   Wind: 5mph
Humidity: 89%   Direction: 280°W
Pressure: 29.85"   Gusts: NA
Location:  5.64°N, 0.01°E
Report Text: DGAA 290100Z 28004KT CAAVOK 26/24 Q1011 NOSIG
Loading
Personal Weather Stations






























Interactive Weather Map New forecast layout! Learn more

10-Day Weather Forecast

Advertisements
Track Severe Weather on mobile